sensor_id;sensor_type;location;lat;lon;timestamp;pressure;altitude;pressure_sealevel;temperature;humidity
43420;BME280;29017;51.514;-0.178;2023-05-19T00:01:29;102303.94;;;15.24;61.25
43420;BME280;29017;51.514;-0.178;2023-05-19T00:03:58;102304.25;;;15.21;61.80
43420;BME280;29017;51.514;-0.178;2023-05-19T00:06:30;102309.00;;;15.18;61.74
43420;BME280;29017;51.514;-0.178;2023-05-19T00:09:01;102304.69;;;15.17;62.95
43420;BME280;29017;51.514;-0.178;2023-05-19T00:11:30;102304.81;;;15.15;63.07
43420;BME280;29017;51.514;-0.178;2023-05-19T00:13:58;102303.44;;;15.11;62.61
43420;BME280;29017;51.514;-0.178;2023-05-19T00:16:26;102301.91;;;15.09;63.34
43420;BME280;29017;51.514;-0.178;2023-05-19T00:18:57;102299.41;;;15.07;63.63
43420;BME280;29017;51.514;-0.178;2023-05-19T00:21:27;102300.69;;;15.03;63.00
43420;BME280;29017;51.514;-0.178;2023-05-19T00:23:54;102294.56;;;15.03;63.19
43420;BME280;29017;51.514;-0.178;2023-05-19T00:26:23;102304.75;;;14.97;63.11
43420;BME280;29017;51.514;-0.178;2023-05-19T00:28:51;102298.22;;;14.92;64.10
43420;BME280;29017;51.514;-0.178;2023-05-19T00:31:18;102304.50;;;14.91;64.62
43420;BME280;29017;51.514;-0.178;2023-05-19T00:33:45;102306.44;;;14.89;64.62
43420;BME280;29017;51.514;-0.178;2023-05-19T00:36:13;102296.00;;;14.87;64.86
43420;BME280;29017;51.514;-0.178;2023-05-19T00:38:40;102300.47;;;14.87;65.56
43420;BME280;29017;51.514;-0.178;2023-05-19T00:41:07;102299.63;;;14.86;66.10
43420;BME280;29017;51.514;-0.178;2023-05-19T00:43:35;102296.13;;;14.86;65.57
43420;BME280;29017;51.514;-0.178;2023-05-19T00:46:02;102293.94;;;14.81;65.77
43420;BME280;29017;51.514;-0.178;2023-05-19T00:48:29;102298.53;;;14.79;65.88
43420;BME280;29017;51.514;-0.178;2023-05-19T00:50:58;102292.25;;;14.80;66.40
43420;BME280;29017;51.514;-0.178;2023-05-19T00:53:32;102292.56;;;14.77;67.24
43420;BME280;29017;51.514;-0.178;2023-05-19T00:56:03;102291.84;;;14.75;67.20
43420;BME280;29017;51.514;-0.178;2023-05-19T00:58:30;102303.28;;;14.76;66.84
43420;BME280;29017;51.514;-0.178;2023-05-19T01:00:59;102298.41;;;14.71;66.94
43420;BME280;29017;51.514;-0.178;2023-05-19T01:03:32;102299.78;;;14.75;67.44
43420;BME280;29017;51.514;-0.178;2023-05-19T01:06:02;102299.66;;;14.77;67.40
43420;BME280;29017;51.514;-0.178;2023-05-19T01:08:31;102304.13;;;14.76;67.07
43420;BME280;29017;51.514;-0.178;2023-05-19T01:10:59;102308.03;;;14.72;67.35
43420;BME280;29017;51.514;-0.178;2023-05-19T01:13:27;102306.63;;;14.68;67.79
43420;BME280;29017;51.514;-0.178;2023-05-19T01:15:59;102304.16;;;14.67;68.03
43420;BME280;29017;51.514;-0.178;2023-05-19T01:18:37;102304.69;;;14.70;68.12
43420;BME280;29017;51.514;-0.178;2023-05-19T01:21:23;102294.22;;;14.69;67.99
43420;BME280;29017;51.514;-0.178;2023-05-19T01:23:58;102298.97;;;14.65;68.47
43420;BME280;29017;51.514;-0.178;2023-05-19T01:31:35;102298.97;;;14.65;69.24
43420;BME280;29017;51.514;-0.178;2023-05-19T01:34:04;102294.13;;;14.61;68.82
43420;BME280;29017;51.514;-0.178;2023-05-19T01:36:32;102295.22;;;14.58;69.59
43420;BME280;29017;51.514;-0.178;2023-05-19T01:39:01;102290.22;;;14.55;69.82
43420;BME280;29017;51.514;-0.178;2023-05-19T01:41:29;102284.38;;;14.51;69.96
43420;BME280;29017;51.514;-0.178;2023-05-19T01:43:58;102280.75;;;14.52;69.20
43420;BME280;29017;51.514;-0.178;2023-05-19T01:46:26;102287.03;;;14.51;69.59
43420;BME280;29017;51.514;-0.178;2023-05-19T01:48:53;102284.09;;;14.45;69.11
43420;BME280;29017;51.514;-0.178;2023-05-19T01:51:21;102289.00;;;14.40;70.58
43420;BME280;29017;51.514;-0.178;2023-05-19T01:53:48;102295.97;;;14.41;72.08
43420;BME280;29017;51.514;-0.178;2023-05-19T01:56:33;102282.44;;;14.44;70.98
43420;BME280;29017;51.514;-0.178;2023-05-19T01:59:15;102291.63;;;14.40;70.55
43420;BME280;29017;51.514;-0.178;2023-05-19T02:01:52;102292.59;;;14.39;71.12
43420;BME280;29017;51.514;-0.178;2023-05-19T02:09:33;102300.28;;;14.32;71.11
43420;BME280;29017;51.514;-0.178;2023-05-19T02:12:10;102288.13;;;14.30;71.55
43420;BME280;29017;51.514;-0.178;2023-05-19T02:17:13;102289.41;;;14.26;72.12
43420;BME280;29017;51.514;-0.178;2023-05-19T02:19:42;102284.94;;;14.26;71.78
43420;BME280;29017;51.514;-0.178;2023-05-19T02:22:10;102285.78;;;14.27;72.15
43420;BME280;29017;51.514;-0.178;2023-05-19T02:24:37;102267.25;;;14.27;72.36
43420;BME280;29017;51.514;-0.178;2023-05-19T02:27:05;102278.38;;;14.21;71.99
43420;BME280;29017;51.514;-0.178;2023-05-19T02:29:33;102270.59;;;14.19;72.33
43420;BME280;29017;51.514;-0.178;2023-05-19T02:32:00;102277.81;;;14.17;72.63
43420;BME280;29017;51.514;-0.178;2023-05-19T02:34:28;102276.16;;;14.16;73.12
43420;BME280;29017;51.514;-0.178;2023-05-19T02:36:55;102277.00;;;14.17;73.26
43420;BME280;29017;51.514;-0.178;2023-05-19T02:39:22;102271.13;;;14.13;73.45
43420;BME280;29017;51.514;-0.178;2023-05-19T02:41:50;102274.34;;;14.17;73.82
43420;BME280;29017;51.514;-0.178;2023-05-19T02:44:17;102268.22;;;14.16;73.24
43420;BME280;29017;51.514;-0.178;2023-05-19T02:46:44;102271.13;;;14.13;73.65
43420;BME280;29017;51.514;-0.178;2023-05-19T02:49:13;102270.59;;;14.09;74.09
43420;BME280;29017;51.514;-0.178;2023-05-19T02:51:40;102275.59;;;14.12;74.50
43420;BME280;29017;51.514;-0.178;2023-05-19T02:54:08;102276.44;;;14.13;74.24
43420;BME280;29017;51.514;-0.178;2023-05-19T02:56:35;102273.94;;;14.11;74.85
43420;BME280;29017;51.514;-0.178;2023-05-19T02:59:02;102273.53;;;14.06;74.26
43420;BME280;29017;51.514;-0.178;2023-05-19T03:01:30;102281.72;;;14.03;74.88
43420;BME280;29017;51.514;-0.178;2023-05-19T03:03:58;102284.13;;;14.06;74.30
43420;BME280;29017;51.514;-0.178;2023-05-19T03:06:26;102272.09;;;14.02;74.25
43420;BME280;29017;51.514;-0.178;2023-05-19T03:08:53;102268.50;;;14.03;74.58
43420;BME280;29017;51.514;-0.178;2023-05-19T03:11:20;102261.41;;;14.04;74.71
43420;BME280;29017;51.514;-0.178;2023-05-19T03:13:49;102260.97;;;13.99;74.35
43420;BME280;29017;51.514;-0.178;2023-05-19T03:16:16;102266.41;;;13.97;74.49
43420;BME280;29017;51.514;-0.178;2023-05-19T03:18:43;102269.47;;;13.93;74.55
43420;BME280;29017;51.514;-0.178;2023-05-19T03:21:26;102272.81;;;13.95;75.31
43420;BME280;29017;51.514;-0.178;2023-05-19T03:23:53;102269.03;;;13.97;75.59
43420;BME280;29017;51.514;-0.178;2023-05-19T03:26:21;102265.44;;;13.98;75.46
43420;BME280;29017;51.514;-0.178;2023-05-19T03:28:49;102267.41;;;13.96;75.63
43420;BME280;29017;51.514;-0.178;2023-05-19T03:31:17;102263.06;;;13.95;74.63
43420;BME280;29017;51.514;-0.178;2023-05-19T03:33:44;102267.53;;;13.95;74.68
43420;BME280;29017;51.514;-0.178;2023-05-19T03:36:11;102259.59;;;13.95;75.57
43420;BME280;29017;51.514;-0.178;2023-05-19T03:38:39;102258.75;;;13.94;75.58
43420;BME280;29017;51.514;-0.178;2023-05-19T03:41:07;102259.84;;;13.92;75.95
43420;BME280;29017;51.514;-0.178;2023-05-19T03:43:34;102253.16;;;13.88;75.65
43420;BME280;29017;51.514;-0.178;2023-05-19T03:46:01;102265.44;;;13.89;75.60
43420;BME280;29017;51.514;-0.178;2023-05-19T03:48:29;102258.03;;;13.92;76.04
43420;BME280;29017;51.514;-0.178;2023-05-19T03:50:56;102259.03;;;13.91;75.53
43420;BME280;29017;51.514;-0.178;2023-05-19T03:53:24;102255.81;;;13.88;75.14
43420;BME280;29017;51.514;-0.178;2023-05-19T03:55:52;102260.44;;;13.86;74.70
43420;BME280;29017;51.514;-0.178;2023-05-19T03:58:19;102255.97;;;13.86;74.99
43420;BME280;29017;51.514;-0.178;2023-05-19T04:00:46;102253.75;;;13.91;76.62
43420;BME280;29017;51.514;-0.178;2023-05-19T04:03:14;102246.78;;;13.90;75.45
43420;BME280;29017;51.514;-0.178;2023-05-19T04:05:41;102250.09;;;13.92;75.25
43420;BME280;29017;51.514;-0.178;2023-05-19T04:08:08;102257.63;;;13.97;77.15
43420;BME280;29017;51.514;-0.178;2023-05-19T04:10:36;102254.28;;;13.95;75.99
43420;BME280;29017;51.514;-0.178;2023-05-19T04:13:03;102260.44;;;13.95;75.14
43420;BME280;29017;51.514;-0.178;2023-05-19T04:15:31;102255.13;;;13.95;75.03
43420;BME280;29017;51.514;-0.178;2023-05-19T04:17:58;102263.06;;;13.95;75.10
43420;BME280;29017;51.514;-0.178;2023-05-19T04:20:25;102270.03;;;13.96;74.82
43420;BME280;29017;51.514;-0.178;2023-05-19T04:22:53;102262.09;;;13.96;74.80
43420;BME280;29017;51.514;-0.178;2023-05-19T04:25:20;102266.97;;;14.01;74.59
43420;BME280;29017;51.514;-0.178;2023-05-19T04:27:47;102263.91;;;13.96;74.86
43420;BME280;29017;51.514;-0.178;2023-05-19T04:30:15;102265.72;;;13.95;74.79
43420;BME280;29017;51.514;-0.178;2023-05-19T04:32:48;102266.16;;;13.91;74.93
43420;BME280;29017;51.514;-0.178;2023-05-19T04:35:16;102264.34;;;13.91;75.06
43420;BME280;29017;51.514;-0.178;2023-05-19T04:37:44;102269.75;;;13.90;75.31
43420;BME280;29017;51.514;-0.178;2023-05-19T04:40:12;102275.06;;;13.90;75.44
43420;BME280;29017;51.514;-0.178;2023-05-19T04:42:39;102278.66;;;13.89;77.23
43420;BME280;29017;51.514;-0.178;2023-05-19T04:45:08;102271.56;;;13.89;75.99
43420;BME280;29017;51.514;-0.178;2023-05-19T04:47:38;102275.72;;;13.92;75.45
43420;BME280;29017;51.514;-0.178;2023-05-19T04:50:06;102267.66;;;13.93;75.79
43420;BME280;29017;51.514;-0.178;2023-05-19T04:52:33;102269.88;;;13.98;75.21
43420;BME280;29017;51.514;-0.178;2023-05-19T04:55:00;102270.59;;;14.00;76.52
43420;BME280;29017;51.514;-0.178;2023-05-19T04:57:28;102274.22;;;13.99;75.00
43420;BME280;29017;51.514;-0.178;2023-05-19T04:59:55;102269.88;;;13.98;77.19
43420;BME280;29017;51.514;-0.178;2023-05-19T05:02:26;102267.25;;;13.98;75.67
43420;BME280;29017;51.514;-0.178;2023-05-19T05:04:53;102262.09;;;13.96;75.48
43420;BME280;29017;51.514;-0.178;2023-05-19T05:07:22;102260.84;;;14.00;77.21
43420;BME280;29017;51.514;-0.178;2023-05-19T05:09:49;102260.44;;;14.05;77.67
43420;BME280;29017;51.514;-0.178;2023-05-19T05:12:17;102265.28;;;14.09;78.48
43420;BME280;29017;51.514;-0.178;2023-05-19T05:14:45;102264.16;;;14.12;80.78
43420;BME280;29017;51.514;-0.178;2023-05-19T05:17:12;102261.25;;;14.15;79.64
43420;BME280;29017;51.514;-0.178;2023-05-19T05:19:40;102262.94;;;14.16;78.02
43420;BME280;29017;51.514;-0.178;2023-05-19T05:22:08;102265.56;;;14.16;77.30
43420;BME280;29017;51.514;-0.178;2023-05-19T05:24:36;102255.53;;;14.20;77.21
43420;BME280;29017;51.514;-0.178;2023-05-19T05:27:03;102265.28;;;14.19;77.12
43420;BME280;29017;51.514;-0.178;2023-05-19T05:29:31;102259.69;;;14.22;77.21
43420;BME280;29017;51.514;-0.178;2023-05-19T05:31:59;102249.94;;;14.23;77.15
43420;BME280;29017;51.514;-0.178;2023-05-19T05:34:26;102258.47;;;14.26;76.75
43420;BME280;29017;51.514;-0.178;2023-05-19T05:36:54;102252.88;;;14.29;75.70
43420;BME280;29017;51.514;-0.178;2023-05-19T05:39:21;102256.22;;;14.31;76.41
43420;BME280;29017;51.514;-0.178;2023-05-19T05:41:49;102251.91;;;14.30;76.44
43420;BME280;29017;51.514;-0.178;2023-05-19T05:44:16;102246.91;;;14.37;76.16
43420;BME280;29017;51.514;-0.178;2023-05-19T05:46:43;102256.50;;;14.38;75.31
43420;BME280;29017;51.514;-0.178;2023-05-19T05:49:11;102243.13;;;14.39;76.28
43420;BME280;29017;51.514;-0.178;2023-05-19T05:51:39;102248.00;;;14.44;75.81
43420;BME280;29017;51.514;-0.178;2023-05-19T05:54:19;102249.69;;;14.45;74.84
43420;BME280;29017;51.514;-0.178;2023-05-19T05:56:48;102246.06;;;14.46;73.87
43420;BME280;29017;51.514;-0.178;2023-05-19T05:59:15;102246.19;;;14.44;74.48
43420;BME280;29017;51.514;-0.178;2023-05-19T06:01:43;102243.94;;;14.49;74.45
43420;BME280;29017;51.514;-0.178;2023-05-19T06:04:10;102240.03;;;14.53;75.80
43420;BME280;29017;51.514;-0.178;2023-05-19T06:06:37;102235.28;;;14.57;73.27
43420;BME280;29017;51.514;-0.178;2023-05-19T06:09:05;102243.91;;;14.59;73.58
43420;BME280;29017;51.514;-0.178;2023-05-19T06:11:32;102236.38;;;14.64;74.13
43420;BME280;29017;51.514;-0.178;2023-05-19T06:14:00;102232.63;;;14.67;72.91
43420;BME280;29017;51.514;-0.178;2023-05-19T06:16:27;102230.63;;;14.69;73.74
43420;BME280;29017;51.514;-0.178;2023-05-19T06:18:54;102242.78;;;14.71;74.78
43420;BME280;29017;51.514;-0.178;2023-05-19T06:21:22;102240.66;;;14.75;74.84
43420;BME280;29017;51.514;-0.178;2023-05-19T06:23:49;102243.84;;;14.78;76.32
43420;BME280;29017;51.514;-0.178;2023-05-19T06:26:17;102245.53;;;14.79;74.16
43420;BME280;29017;51.514;-0.178;2023-05-19T06:28:44;102238.28;;;14.81;73.90
43420;BME280;29017;51.514;-0.178;2023-05-19T06:31:11;102234.91;;;14.79;74.02
43420;BME280;29017;51.514;-0.178;2023-05-19T06:33:38;102245.44;;;14.71;73.98
43420;BME280;29017;51.514;-0.178;2023-05-19T06:36:06;102237.91;;;14.67;73.13
43420;BME280;29017;51.514;-0.178;2023-05-19T06:38:36;102245.56;;;14.70;73.55
43420;BME280;29017;51.514;-0.178;2023-05-19T06:41:03;102248.75;;;14.73;74.46
43420;BME280;29017;51.514;-0.178;2023-05-19T06:43:31;102241.63;;;14.74;74.06
43420;BME280;29017;51.514;-0.178;2023-05-19T06:45:58;102247.34;;;14.79;73.44
43420;BME280;29017;51.514;-0.178;2023-05-19T06:48:26;102246.22;;;14.81;73.66
43420;BME280;29017;51.514;-0.178;2023-05-19T06:50:53;102250.25;;;14.85;72.01
43420;BME280;29017;51.514;-0.178;2023-05-19T06:53:21;102240.78;;;14.83;72.11
43420;BME280;29017;51.514;-0.178;2023-05-19T06:55:48;102236.59;;;14.80;71.79
43420;BME280;29017;51.514;-0.178;2023-05-19T06:58:25;102243.56;;;14.81;71.91
43420;BME280;29017;51.514;-0.178;2023-05-19T07:00:53;102234.09;;;14.79;71.58
43420;BME280;29017;51.514;-0.178;2023-05-19T07:03:20;102246.22;;;14.81;71.90
43420;BME280;29017;51.514;-0.178;2023-05-19T07:05:48;102236.16;;;14.85;71.55
43420;BME280;29017;51.514;-0.178;2023-05-19T07:08:15;102244.66;;;14.88;71.81
43420;BME280;29017;51.514;-0.178;2023-05-19T07:10:42;102249.94;;;14.88;72.29
43420;BME280;29017;51.514;-0.178;2023-05-19T07:13:10;102253.44;;;14.89;71.72
43420;BME280;29017;51.514;-0.178;2023-05-19T07:15:37;102253.28;;;14.90;71.87
43420;BME280;29017;51.514;-0.178;2023-05-19T07:18:04;102254.13;;;14.91;71.65
43420;BME280;29017;51.514;-0.178;2023-05-19T07:20:32;102266.38;;;15.02;70.77
43420;BME280;29017;51.514;-0.178;2023-05-19T07:23:00;102266.22;;;15.03;70.15
43420;BME280;29017;51.514;-0.178;2023-05-19T07:25:28;102258.94;;;15.05;70.74
43420;BME280;29017;51.514;-0.178;2023-05-19T07:27:56;102258.94;;;15.05;71.15
43420;BME280;29017;51.514;-0.178;2023-05-19T07:30:26;102264.13;;;15.07;70.41
43420;BME280;29017;51.514;-0.178;2023-05-19T07:32:53;102268.72;;;15.05;70.72
43420;BME280;29017;51.514;-0.178;2023-05-19T07:35:21;102264.69;;;15.01;71.61
43420;BME280;29017;51.514;-0.178;2023-05-19T07:37:50;102267.66;;;14.97;71.24
43420;BME280;29017;51.514;-0.178;2023-05-19T07:40:24;102281.19;;;14.94;71.60
43420;BME280;29017;51.514;-0.178;2023-05-19T07:42:51;102294.00;;;14.99;71.06
43420;BME280;29017;51.514;-0.178;2023-05-19T07:45:19;102295.66;;;15.00;70.90
43420;BME280;29017;51.514;-0.178;2023-05-19T07:47:46;102302.78;;;14.99;71.00
43420;BME280;29017;51.514;-0.178;2023-05-19T07:50:13;102298.75;;;14.95;71.27
43420;BME280;29017;51.514;-0.178;2023-05-19T07:52:45;102296.09;;;14.95;71.09
43420;BME280;29017;51.514;-0.178;2023-05-19T07:55:12;102301.84;;;14.91;70.57
43420;BME280;29017;51.514;-0.178;2023-05-19T07:57:40;102308.53;;;14.95;70.78
43420;BME280;29017;51.514;-0.178;2023-05-19T08:00:08;102301.94;;;14.99;70.07
43420;BME280;29017;51.514;-0.178;2023-05-19T08:02:38;102303.19;;;15.05;70.31
43420;BME280;29017;51.514;-0.178;2023-05-19T08:05:06;102297.75;;;15.06;69.63
43420;BME280;29017;51.514;-0.178;2023-05-19T08:07:35;102298.13;;;15.11;70.67
43420;BME280;29017;51.514;-0.178;2023-05-19T08:10:03;102292.94;;;15.19;70.28
43420;BME280;29017;51.514;-0.178;2023-05-19T08:12:31;102273.13;;;15.23;67.75
43420;BME280;29017;51.514;-0.178;2023-05-19T08:14:58;102284.69;;;15.22;68.21
43420;BME280;29017;51.514;-0.178;2023-05-19T08:17:27;102282.25;;;15.38;76.39
43420;BME280;29017;51.514;-0.178;2023-05-19T08:19:55;102289.91;;;15.41;71.34
43420;BME280;29017;51.514;-0.178;2023-05-19T08:22:23;102291.25;;;15.46;69.23
43420;BME280;29017;51.514;-0.178;2023-05-19T08:24:50;102294.06;;;15.44;67.74
43420;BME280;29017;51.514;-0.178;2023-05-19T08:27:18;102299.72;;;15.31;68.32
43420;BME280;29017;51.514;-0.178;2023-05-19T08:29:45;102302.28;;;15.23;68.76
43420;BME280;29017;51.514;-0.178;2023-05-19T08:32:13;102295.59;;;15.19;69.72
43420;BME280;29017;51.514;-0.178;2023-05-19T08:34:41;102294.22;;;15.15;69.82
43420;BME280;29017;51.514;-0.178;2023-05-19T08:37:09;102298.97;;;15.12;68.03
43420;BME280;29017;51.514;-0.178;2023-05-19T08:39:37;102296.31;;;15.12;67.95
43420;BME280;29017;51.514;-0.178;2023-05-19T08:42:05;102296.19;;;15.13;68.46
43420;BME280;29017;51.514;-0.178;2023-05-19T08:44:35;102300.50;;;15.14;66.43
43420;BME280;29017;51.514;-0.178;2023-05-19T08:47:03;102314.31;;;15.18;67.04
43420;BME280;29017;51.514;-0.178;2023-05-19T08:49:32;102315.69;;;15.22;67.35
43420;BME280;29017;51.514;-0.178;2023-05-19T08:52:08;102316.63;;;15.30;65.96
43420;BME280;29017;51.514;-0.178;2023-05-19T08:54:44;102335.88;;;15.32;66.77
43420;BME280;29017;51.514;-0.178;2023-05-19T08:57:13;102330.28;;;15.35;66.77
43420;BME280;29017;51.514;-0.178;2023-05-19T08:59:42;102327.72;;;15.44;67.32
43420;BME280;29017;51.514;-0.178;2023-05-19T09:02:10;102311.94;;;15.52;66.75
43420;BME280;29017;51.514;-0.178;2023-05-19T09:04:40;102305.72;;;15.61;66.03
43420;BME280;29017;51.514;-0.178;2023-05-19T09:07:13;102299.75;;;15.59;65.48
43420;BME280;29017;51.514;-0.178;2023-05-19T09:09:41;102302.03;;;15.54;66.43
43420;BME280;29017;51.514;-0.178;2023-05-19T09:12:10;102299.38;;;15.54;67.31
43420;BME280;29017;51.514;-0.178;2023-05-19T09:14:38;102283.28;;;15.55;67.30
43420;BME280;29017;51.514;-0.178;2023-05-19T09:17:06;102285.78;;;15.57;67.74
43420;BME280;29017;51.514;-0.178;2023-05-19T09:19:34;102274.88;;;15.60;67.80
43420;BME280;29017;51.514;-0.178;2023-05-19T09:22:02;102272.00;;;15.71;67.13
43420;BME280;29017;51.514;-0.178;2023-05-19T09:24:29;102283.84;;;15.76;66.33
43420;BME280;29017;51.514;-0.178;2023-05-19T09:26:57;102290.50;;;15.80;66.26
43420;BME280;29017;51.514;-0.178;2023-05-19T09:29:26;102290.81;;;15.77;65.90
43420;BME280;29017;51.514;-0.178;2023-05-19T09:31:54;102285.75;;;15.84;64.92
43420;BME280;29017;51.514;-0.178;2023-05-19T09:34:26;102284.16;;;15.91;65.04
43420;BME280;29017;51.514;-0.178;2023-05-19T09:36:54;102291.00;;;15.94;64.67
43420;BME280;29017;51.514;-0.178;2023-05-19T09:39:23;102293.09;;;16.08;61.19
43420;BME280;29017;51.514;-0.178;2023-05-19T09:41:53;102294.53;;;16.02;60.30
43420;BME280;29017;51.514;-0.178;2023-05-19T09:44:22;102300.63;;;15.95;59.86
43420;BME280;29017;51.514;-0.178;2023-05-19T09:46:51;102299.56;;;15.88;60.57
43420;BME280;29017;51.514;-0.178;2023-05-19T09:49:20;102301.69;;;15.84;59.92
43420;BME280;29017;51.514;-0.178;2023-05-19T09:51:49;102299.75;;;15.76;60.91
43420;BME280;29017;51.514;-0.178;2023-05-19T09:54:19;102297.94;;;15.77;61.04
43420;BME280;29017;51.514;-0.178;2023-05-19T09:56:51;102290.75;;;15.69;60.41
43420;BME280;29017;51.514;-0.178;2023-05-19T09:59:23;102301.91;;;15.73;61.39
43420;BME280;29017;51.514;-0.178;2023-05-19T10:01:54;102292.19;;;15.64;61.51
43420;BME280;29017;51.514;-0.178;2023-05-19T10:04:23;102297.31;;;15.65;62.14
43420;BME280;29017;51.514;-0.178;2023-05-19T10:06:54;102297.41;;;15.73;61.53
43420;BME280;29017;51.514;-0.178;2023-05-19T10:09:23;102293.63;;;15.76;62.18
43420;BME280;29017;51.514;-0.178;2023-05-19T10:11:51;102299.03;;;15.84;61.74
43420;BME280;29017;51.514;-0.178;2023-05-19T10:14:24;102296.19;;;15.86;62.83
43420;BME280;29017;51.514;-0.178;2023-05-19T10:16:53;102299.94;;;15.93;62.21
43420;BME280;29017;51.514;-0.178;2023-05-19T10:19:24;102293.41;;;15.87;62.63
43420;BME280;29017;51.514;-0.178;2023-05-19T10:21:53;102303.13;;;15.78;63.50
43420;BME280;29017;51.514;-0.178;2023-05-19T10:24:22;102297.63;;;15.80;63.60
43420;BME280;29017;51.514;-0.178;2023-05-19T10:26:55;102296.06;;;15.87;62.89
43420;BME280;29017;51.514;-0.178;2023-05-19T10:29:27;102296.97;;;15.96;62.45
43420;BME280;29017;51.514;-0.178;2023-05-19T10:32:01;102296.88;;;16.05;62.47
43420;BME280;29017;51.514;-0.178;2023-05-19T10:37:20;102299.78;;;16.30;62.25
43420;BME280;29017;51.514;-0.178;2023-05-19T10:39:51;102302.16;;;16.41;61.93
43420;BME280;29017;51.514;-0.178;2023-05-19T10:45:04;102289.19;;;16.55;60.55
43420;BME280;29017;51.514;-0.178;2023-05-19T10:47:36;102289.25;;;16.63;60.78
43420;BME280;29017;51.514;-0.178;2023-05-19T10:50:04;102276.66;;;16.65;60.92
43420;BME280;29017;51.514;-0.178;2023-05-19T10:52:37;102271.16;;;16.67;61.90
43420;BME280;29017;51.514;-0.178;2023-05-19T10:55:07;102273.44;;;16.62;62.78
43420;BME280;29017;51.514;-0.178;2023-05-19T10:57:36;102269.13;;;16.61;62.75
43420;BME280;29017;51.514;-0.178;2023-05-19T11:05:42;102268.56;;;16.75;62.89
43420;BME280;29017;51.514;-0.178;2023-05-19T11:08:12;102267.41;;;16.78;63.05
43420;BME280;29017;51.514;-0.178;2023-05-19T11:10:43;102267.41;;;16.78;62.94
43420;BME280;29017;51.514;-0.178;2023-05-19T11:15:48;102272.78;;;16.86;62.64
43420;BME280;29017;51.514;-0.178;2023-05-19T11:18:16;102264.22;;;17.00;63.12
43420;BME280;29017;51.514;-0.178;2023-05-19T11:20:54;102257.91;;;17.09;62.62
43420;BME280;29017;51.514;-0.178;2023-05-19T11:23:26;102261.50;;;17.26;60.86
43420;BME280;29017;51.514;-0.178;2023-05-19T11:25:54;102255.19;;;17.27;60.95
43420;BME280;29017;51.514;-0.178;2023-05-19T11:28:22;102253.03;;;17.30;61.31
43420;BME280;29017;51.514;-0.178;2023-05-19T11:30:54;102244.91;;;17.40;61.27
43420;BME280;29017;51.514;-0.178;2023-05-19T11:33:24;102247.56;;;17.48;61.47
43420;BME280;29017;51.514;-0.178;2023-05-19T11:35:54;102255.13;;;17.61;60.28
43420;BME280;29017;51.514;-0.178;2023-05-19T11:38:27;102254.28;;;17.68;60.27
43420;BME280;29017;51.514;-0.178;2023-05-19T11:40:56;102257.13;;;17.75;58.55
43420;BME280;29017;51.514;-0.178;2023-05-19T11:43:24;102247.66;;;17.80;58.79
43420;BME280;29017;51.514;-0.178;2023-05-19T11:45:53;102243.81;;;17.83;58.54
43420;BME280;29017;51.514;-0.178;2023-05-19T11:48:21;102243.03;;;17.82;58.34
43420;BME280;29017;51.514;-0.178;2023-05-19T11:50:49;102244.84;;;17.90;56.27
43420;BME280;29017;51.514;-0.178;2023-05-19T11:53:17;102234.88;;;17.92;55.92
43420;BME280;29017;51.514;-0.178;2023-05-19T11:55:47;102231.69;;;17.88;56.71
43420;BME280;29017;51.514;-0.178;2023-05-19T11:58:15;102226.88;;;17.92;56.46
43420;BME280;29017;51.514;-0.178;2023-05-19T12:00:43;102231.69;;;17.97;57.60
43420;BME280;29017;51.514;-0.178;2023-05-19T12:03:14;102228.50;;;17.93;56.17
43420;BME280;29017;51.514;-0.178;2023-05-19T12:05:43;102221.84;;;17.73;56.95
43420;BME280;29017;51.514;-0.178;2023-05-19T12:08:15;102214.53;;;17.67;57.41
43420;BME280;29017;51.514;-0.178;2023-05-19T12:10:43;102208.88;;;17.70;57.94
43420;BME280;29017;51.514;-0.178;2023-05-19T12:13:14;102210.38;;;17.72;57.42
43420;BME280;29017;51.514;-0.178;2023-05-19T12:15:41;102212.38;;;17.70;56.60
43420;BME280;29017;51.514;-0.178;2023-05-19T12:18:09;102212.03;;;17.65;56.57
43420;BME280;29017;51.514;-0.178;2023-05-19T12:20:37;102208.53;;;17.65;56.67
43420;BME280;29017;51.514;-0.178;2023-05-19T12:23:05;102217.38;;;17.65;57.23
43420;BME280;29017;51.514;-0.178;2023-05-19T12:25:33;102210.22;;;17.66;58.04
43420;BME280;29017;51.514;-0.178;2023-05-19T12:28:01;102216.72;;;17.71;56.29
43420;BME280;29017;51.514;-0.178;2023-05-19T12:30:30;102216.53;;;17.65;56.04
43420;BME280;29017;51.514;-0.178;2023-05-19T12:33:00;102226.28;;;17.48;57.09
43420;BME280;29017;51.514;-0.178;2023-05-19T12:35:30;102220.63;;;17.51;57.25
43420;BME280;29017;51.514;-0.178;2023-05-19T12:38:03;102218.63;;;17.53;57.66
43420;BME280;29017;51.514;-0.178;2023-05-19T12:40:33;102219.69;;;17.60;58.03
43420;BME280;29017;51.514;-0.178;2023-05-19T12:43:02;102223.13;;;17.52;57.88
43420;BME280;29017;51.514;-0.178;2023-05-19T12:45:34;102215.47;;;17.49;58.07
43420;BME280;29017;51.514;-0.178;2023-05-19T12:48:04;102203.19;;;17.57;58.96
43420;BME280;29017;51.514;-0.178;2023-05-19T12:50:32;102216.72;;;17.71;59.00
43420;BME280;29017;51.514;-0.178;2023-05-19T12:53:01;102218.88;;;17.76;58.42
43420;BME280;29017;51.514;-0.178;2023-05-19T12:55:29;102206.41;;;17.92;57.78
43420;BME280;29017;51.514;-0.178;2023-05-19T12:57:56;102214.53;;;17.99;57.46
43420;BME280;29017;51.514;-0.178;2023-05-19T13:00:24;102221.38;;;18.10;56.47
43420;BME280;29017;51.514;-0.178;2023-05-19T13:02:58;102221.38;;;18.18;56.07
43420;BME280;29017;51.514;-0.178;2023-05-19T13:05:27;102212.88;;;18.14;56.89
43420;BME280;29017;51.514;-0.178;2023-05-19T13:07:57;102210.88;;;18.16;55.97
43420;BME280;29017;51.514;-0.178;2023-05-19T13:10:26;102218.19;;;18.14;56.28
43420;BME280;29017;51.514;-0.178;2023-05-19T13:12:54;102211.19;;;18.21;55.25
43420;BME280;29017;51.514;-0.178;2023-05-19T13:15:23;102208.69;;;18.20;54.57